TRINITY LAKE (CLE)

Elevation: 2370' · TRINITY R basin · Operator: US Bureau of Reclamation

Provisional data, subject to change.
Query executed Thursday at 11:16:14   clock

Select a sensor type for a plot of data.
Note: Reservoir Flows are daily averages.

Earlier

Date RES ELE    STORAGE    RES CHG    OUTFLOW    INFLOW    EVAP    FNF    RIV REL    PPT INC    SPILL    DIS PWR   
 FEET   AF   AF   CFS   CFS   CFS   CFS   CFS   INCHES   CFS   CFS  
06/29/2016 2283.23 1273459 -6826 r 2672 -666 103 770 e 0 0.00 0 2672
06/30/2016 2282.80 1268888 -4571 r 2616 411 100 770 e 0 0.00 0 2616
07/01/2016 2282.36 1264228 -4660 r 2785 504 68 770 e 0 0.00 0 2785
07/02/2016 2281.93 1259679 -4549 r 2654 460 99 790 e 0 0.00 0 2654
07/03/2016 2281.50 1255157 -4522 r 2674 487 93 790 e 0 0.00 0 2674
07/04/2016 2281.09 1250845 -4312 r 2521 486 139 486 e 0 0.00 0 2521
07/05/2016 2280.66 1246347 -4498 r 2680 495 83 495 0 0.00 0 2680
07/06/2016 2280.21 1241648 -4699 r 2831 557 95 557 0 0.00 0 2831
07/07/2016 2279.81 1237484 -4164 2421 414 92 414 0 0.00 0 2421
07/08/2016 2279.38 1233023 -4461 2387 229 91 229 0 0.00 0 2387
07/09/2016 2278.91 1228153 -4870 2408 20 67 242 e 0 0.00 0 2408
07/10/2016 2278.54 1224339 -3814 2010 202 115 202 0 0.00 0 2010
07/11/2016 2278.25 1221350 -2989 1888 463 82 241 e 0 0.00 0 1888
07/12/2016 2277.84 1217134 -4216 2428 374 72 374 0 0.00 0 2428
07/13/2016 2277.48 1213446 -3688 2425 653 87 653 0 0.00 0 2425
07/14/2016 2277.11 1209656 -3790 2520 690 81 442 e 0 0.00 0 2520
07/15/2016 2276.56 1204050 -5606 3042 309 93 309 0 0.00 0 3042
07/16/2016 2275.95 1197844 -6206 3353 337 113 337 0 0.00 0 3353
07/17/2016 2275.54 1193698 -4146 2167 193 116 442 e 0 0.00 0 2167
07/18/2016 2275.04 1188641 -5057 2602 144 92 266 e 0 0.00 0 2602
07/19/2016 2274.66 1184819 -3822 2147 288 68 288 0 0.00 0 2147
07/20/2016 2274.31 1181302 -3517 2068 387 92 265 e 0 0.00 0 2068
07/21/2016 2273.96 1177787 -3515 1882 201 91 201 0 0.00 0 1882
07/22/2016 2273.68 1174990 -2797 1580 255 85 255 0 0.00 0 1580
07/23/2016 2273.43 1172494 -2496 1600 430 88 430 0 0.00 0 1600
07/24/2016 2273.16 1169798 -2696 1635 402 126 402 0 0.00 0 1635
07/25/2016 2272.92 1167406 -2392 1634 571 143 571 0 0.00 0 1634
07/26/2016 2272.65 1164727 -2679 1633 387 105 -- 0 0.00 0 1633
07/27/2016 2272.43 1162544 -2183 1454 452 99 -- 0 0.00 0 1454
07/28/2016 -- -- -- -- -- -- -- -- -- -- --

Later | Latest

Warning! This data is preliminary and subject to revision.

Show CLE Map | Plot CLE Data | 1 Month CLE Data | Real-Time CLE Data | CLE Info